Time;durP1;ratioP1;P1;durP2;ratioP2;P2;SDS_P1;SDS_P2;PMS_P1;PMS_P2;Temp;Humidity;BMP_temperature;BMP_pressure;BME280_temperature;BME280_humidity;BME280_pressure;Samples;Min_cycle;Max_cycle;Signal;HPM_P1;HPM_P2
2023/02/20 00:02:31;;;;;;;14.00;5.40;;;;;;;-0.43;80.16;100827.71;133716;1300;22460;-76
2023/02/20 00:05:32;;;;;;;18.00;6.00;;;;;;;-0.41;80.06;100832.45;133714;1300;22162;-77
2023/02/20 00:08:32;;;;;;;16.50;5.60;;;;;;;-0.40;80.31;100828.96;133745;1300;23084;-75
2023/02/20 00:11:33;;;;;;;13.60;5.70;;;;;;;-0.40;80.04;100827.55;133673;1300;22205;-75
2023/02/20 00:14:34;;;;;;;14.80;5.60;;;;;;;-0.41;80.09;100825.31;133697;1300;22325;-75
2023/02/20 00:17:36;;;;;;;14.10;5.30;;;;;;;-0.43;80.15;100821.77;133706;1300;22168;-75
2023/02/20 00:20:39;;;;;;;12.80;5.40;;;;;;;-0.44;80.09;100811.60;133691;1300;22430;-76
2023/02/20 00:23:40;;;;;;;19.90;7.10;;;;;;;-0.46;80.41;100807.84;133705;1300;22237;-76
2023/02/20 00:26:48;;;;;;;19.90;8.60;;;;;;;-0.48;80.16;100799.79;133573;1301;22538;-75
2023/02/20 00:29:49;;;;;;;27.80;10.20;;;;;;;-0.49;80.35;100793.05;133663;1300;23125;-75
2023/02/20 00:32:53;;;;;;;27.00;9.80;;;;;;;-0.49;80.54;100795.98;133677;1300;22387;-76
2023/02/20 00:35:55;;;;;;;21.20;8.70;;;;;;;-0.47;80.53;100794.70;133698;1300;22466;-75
2023/02/20 00:38:55;;;;;;;25.40;10.40;;;;;;;-0.44;80.47;100791.08;133693;1300;23563;-78
2023/02/20 00:41:57;;;;;;;28.00;10.50;;;;;;;-0.42;80.56;100784.02;133553;1308;22425;-75
2023/02/20 00:44:58;;;;;;;29.90;10.20;;;;;;;-0.39;80.74;100786.83;133621;1300;22219;-75
2023/02/20 00:47:59;;;;;;;20.50;7.00;;;;;;;-0.35;80.72;100787.48;133575;1303;22489;-75
2023/02/20 00:50:59;;;;;;;11.30;5.40;;;;;;;-0.32;80.81;100793.39;133704;1300;22413;-76
2023/02/20 00:54:00;;;;;;;14.40;5.80;;;;;;;-0.28;80.83;100798.77;133713;1300;22405;-76
2023/02/20 00:57:01;;;;;;;17.00;5.80;;;;;;;-0.25;80.69;100791.78;133475;1301;22443;-76
2023/02/20 01:00:04;;;;;;;13.10;5.00;;;;;;;-0.22;80.65;100789.56;133757;1292;22446;-75
2023/02/20 01:03:07;;;;;;;15.50;6.10;;;;;;;-0.20;80.61;100792.06;133648;1294;22530;-75
2023/02/20 01:06:07;;;;;;;15.90;5.50;;;;;;;-0.18;80.71;100791.24;133714;1300;22128;-75
2023/02/20 01:09:10;;;;;;;17.40;5.80;;;;;;;-0.14;80.81;100787.75;133691;1300;22423;-76
2023/02/20 01:12:11;;;;;;;11.60;5.50;;;;;;;-0.12;80.72;100783.46;133726;1300;23018;-76
2023/02/20 01:15:14;;;;;;;16.20;6.50;;;;;;;-0.11;80.80;100777.83;133733;1300;22536;-76
2023/02/20 01:18:15;;;;;;;13.90;6.60;;;;;;;-0.07;80.79;100769.45;133717;1300;22440;-75
2023/02/20 01:21:15;;;;;;;16.10;6.80;;;;;;;-0.03;80.69;100766.45;133670;1300;22257;-75
2023/02/20 01:24:17;;;;;;;12.50;7.00;;;;;;;-0.01;80.66;100767.38;133710;1300;22157;-75
2023/02/20 01:27:21;;;;;;;16.20;6.50;;;;;;;0.01;80.73;100760.70;133653;1301;22261;-75
2023/02/20 01:30:21;;;;;;;17.30;6.30;;;;;;;0.03;80.65;100765.79;133565;1304;22424;-75
2023/02/20 01:33:22;;;;;;;11.40;5.80;;;;;;;0.04;80.66;100768.85;133728;1300;23113;-76
2023/02/20 01:36:22;;;;;;;18.10;6.90;;;;;;;0.05;80.71;100757.85;133727;1300;22402;-75
2023/02/20 01:39:26;;;;;;;14.40;5.50;;;;;;;0.03;80.57;100748.05;133744;1300;22160;-75
2023/02/20 01:42:30;;;;;;;16.00;6.30;;;;;;;-0.01;80.58;100740.08;133648;1300;22429;-76
2023/02/20 01:45:38;;;;;;;10.30;5.30;;;;;;;-0.05;80.66;100728.29;133724;1300;22140;-75
2023/02/20 01:48:39;;;;;;;22.30;5.80;;;;;;;-0.07;80.75;100731.86;133723;1301;22423;-75
2023/02/20 01:52:12;;;;;;;11.00;5.50;;;;;;;-0.07;80.73;100730.15;133653;1302;22383;-75
2023/02/20 01:55:13;;;;;;;14.70;5.90;;;;;;;-0.06;80.96;100725.25;133698;1300;23157;-75
2023/02/20 01:58:19;;;;;;;21.10;6.50;;;;;;;-0.06;80.96;100718.10;133632;1303;22465;-75
2023/02/20 02:01:20;;;;;;;13.90;5.20;;;;;;;-0.07;80.96;100713.09;133695;1300;22569;-75
2023/02/20 02:04:20;;;;;;;13.70;5.90;;;;;;;-0.08;80.93;100711.58;133727;1300;22415;-75
2023/02/20 02:07:23;;;;;;;15.40;5.60;;;;;;;-0.08;81.00;100707.08;133732;1300;22472;-76
2023/02/20 02:10:30;;;;;;;11.40;5.00;;;;;;;-0.08;80.91;100698.55;133480;1309;22433;-75
2023/02/20 02:13:32;;;;;;;16.20;5.50;;;;;;;-0.11;81.01;100689.00;133726;1300;22360;-75
2023/02/20 02:16:33;;;;;;;12.80;4.70;;;;;;;-0.15;80.84;100686.25;133729;1300;22433;-75
2023/02/20 02:19:52;;;;;;;10.80;4.60;;;;;;;-0.20;80.84;100683.91;133653;1300;22401;-75
2023/02/20 02:23:31;;;;;;;14.40;6.50;;;;;;;-0.24;80.82;100688.46;133547;1301;23224;-75
2023/02/20 02:26:41;;;;;;;22.60;7.20;;;;;;;-0.29;81.02;100684.57;133562;1302;22630;-75
2023/02/20 02:30:19;;;;;;;16.80;5.50;;;;;;;-0.34;80.84;100682.60;133692;1308;22195;-76
2023/02/20 02:33:42;;;;;;;12.50;5.10;;;;;;;-0.40;80.98;100684.63;133741;1300;23274;-76
2023/02/20 02:37:15;;;;;;;12.00;4.90;;;;;;;-0.46;81.17;100693.46;133716;1305;22361;-75
2023/02/20 02:40:33;;;;;;;17.60;6.20;;;;;;;-0.45;81.40;100692.39;133733;1300;22402;-75
2023/02/20 02:43:39;;;;;;;11.40;5.40;;;;;;;-0.43;81.32;100691.27;133486;1303;22169;-75
2023/02/20 02:47:15;;;;;;;10.90;4.80;;;;;;;-0.42;81.49;100684.43;133724;1300;22162;-75
2023/02/20 02:50:17;;;;;;;12.60;5.30;;;;;;;-0.42;81.57;100686.65;133458;1302;22449;-75
2023/02/20 02:53:20;;;;;;;13.90;4.90;;;;;;;-0.40;81.58;100684.83;133451;1303;22490;-75
2023/02/20 02:56:33;;;;;;;14.30;5.40;;;;;;;-0.38;81.49;100682.10;133394;1303;22282;-75
2023/02/20 02:59:36;;;;;;;13.10;5.30;;;;;;;-0.37;81.43;100670.21;133454;1303;22245;-75
2023/02/20 03:02:45;;;;;;;16.30;4.90;;;;;;;-0.36;81.45;100657.12;133396;1304;22359;-75
2023/02/20 03:05:49;;;;;;;11.50;4.30;;;;;;;-0.36;81.57;100652.42;133336;1310;23362;-76
2023/02/20 03:08:59;;;;;;;13.20;4.80;;;;;;;-0.37;81.56;100651.42;133500;1302;22482;-74
2023/02/20 03:12:02;;;;;;;15.30;4.80;;;;;;;-0.37;81.50;100646.39;133381;1304;23010;-75
2023/02/20 03:15:36;;;;;;;12.10;4.00;;;;;;;-0.38;81.36;100641.95;133267;1304;22438;-75
2023/02/20 03:18:40;;;;;;;11.00;4.30;;;;;;;-0.39;81.54;100631.23;133477;1303;22252;-74
2023/02/20 03:21:47;;;;;;;13.70;4.20;;;;;;;-0.40;81.58;100632.85;133610;1301;22917;-75
2023/02/20 03:24:55;;;;;;;10.00;4.30;;;;;;;-0.40;81.68;100636.17;133752;1300;22476;-75
2023/02/20 03:28:22;;;;;;;7.30;3.60;;;;;;;-0.41;81.69;100635.53;133478;1303;22387;-75
2023/02/20 03:31:34;;;;;;;8.80;4.30;;;;;;;-0.42;81.85;100641.12;133575;1303;22203;-75
2023/02/20 03:44:43;;;;;;;12.00;4.10;;;;;;;-0.40;82.05;100642.58;133784;1300;22385;-74
2023/02/20 03:47:49;;;;;;;14.10;4.60;;;;;;;-0.38;82.26;100640.41;133653;1300;22452;-75
2023/02/20 03:50:50;;;;;;;9.30;3.90;;;;;;;-0.35;82.57;100639.19;133518;1301;23290;-75
2023/02/20 03:53:52;;;;;;;14.80;4.50;;;;;;;-0.31;82.60;100635.45;133701;1300;22250;-75
2023/02/20 03:56:58;;;;;;;14.30;4.60;;;;;;;-0.26;82.66;100634.70;133656;1304;22265;-75
2023/02/20 04:00:05;;;;;;;11.00;4.10;;;;;;;-0.21;82.70;100626.23;133763;1300;22456;-75
2023/02/20 04:03:21;;;;;;;13.80;6.20;;;;;;;-0.16;82.78;100619.88;133753;1300;22449;-74
2023/02/20 04:06:30;;;;;;;11.20;4.10;;;;;;;-0.12;82.65;100607.79;133485;1303;22485;-74
2023/02/20 04:09:34;;;;;;;9.20;3.10;;;;;;;-0.06;82.64;100614.60;133528;1303;23104;-74
2023/02/20 04:12:43;;;;;;;8.00;3.70;;;;;;;-0.01;82.65;100620.08;133663;1301;23188;-74
2023/02/20 04:15:46;;;;;;;;;;;;;;;0.03;82.80;100612.36;133505;1301;22631;-75
2023/02/20 04:18:48;;;;;;;9.50;4.40;;;;;;;0.06;82.73;100608.52;133737;1300;22419;-74
2023/02/20 04:21:53;;;;;;;8.60;3.40;;;;;;;0.11;82.66;100604.95;133752;1300;22303;-74
2023/02/20 04:24:58;;;;;;;14.60;4.30;;;;;;;0.15;82.68;100605.94;133673;1301;22441;-74
2023/02/20 04:28:03;;;;;;;10.90;4.20;;;;;;;0.17;82.59;100597.96;133528;1300;22440;-74
2023/02/20 04:31:08;;;;;;;7.60;3.30;;;;;;;0.20;82.32;100603.57;133623;1302;22406;-75
2023/02/20 04:34:09;;;;;;;11.30;3.80;;;;;;;0.22;82.26;100599.23;133545;1303;23096;-74
2023/02/20 04:37:17;;;;;;;11.00;3.80;;;;;;;0.23;82.17;100598.49;133672;1301;22404;-76
2023/02/20 04:40:21;;;;;;;6.40;2.90;;;;;;;0.23;82.21;100587.90;133803;1300;22498;-74
2023/02/20 04:43:22;;;;;;;7.10;3.70;;;;;;;0.22;82.15;100578.86;133734;1300;22392;-74
2023/02/20 04:46:26;;;;;;;13.60;5.20;;;;;;;0.22;82.20;100570.16;133657;1292;22402;-74
2023/02/20 04:49:26;;;;;;;;;;;;;;;0.24;82.09;100570.77;133673;1303;22444;-75
2023/02/20 04:52:30;;;;;;;12.30;4.70;;;;;;;0.26;82.10;100567.91;133585;1306;22459;-74
2023/02/20 04:55:31;;;;;;;14.50;4.60;;;;;;;0.26;82.11;100564.77;133705;1308;22477;-75
2023/02/20 04:58:36;;;;;;;8.90;3.40;;;;;;;0.27;82.01;100558.42;133738;1301;22404;-74
2023/02/20 05:01:46;;;;;;;11.50;2.90;;;;;;;0.29;81.94;100549.77;133572;1300;22355;-74
2023/02/20 05:04:47;;;;;;;9.50;3.60;;;;;;;0.30;81.84;100547.83;133749;1300;23106;-74
2023/02/20 05:07:48;;;;;;;12.10;3.50;;;;;;;0.30;81.73;100553.55;133767;1300;23050;-75
2023/02/20 05:10:48;;;;;;;8.30;3.10;;;;;;;0.31;81.78;100546.89;133695;1300;22426;-76
2023/02/20 05:13:49;;;;;;;9.50;3.20;;;;;;;0.33;81.71;100544.64;133747;1300;22187;-75
2023/02/20 05:16:52;;;;;;;7.00;2.80;;;;;;;0.36;81.64;100551.61;133769;1300;22376;-74
2023/02/20 05:19:53;;;;;;;6.70;2.70;;;;;;;0.36;81.59;100547.43;133734;1300;23168;-75
2023/02/20 05:22:53;;;;;;;5.80;3.40;;;;;;;0.37;81.60;100546.89;133770;1300;22442;-74
2023/02/20 05:25:54;;;;;;;7.00;3.60;;;;;;;0.37;81.56;100538.16;133719;1307;23204;-75
2023/02/20 05:28:55;;;;;;;8.20;3.70;;;;;;;0.37;81.68;100538.31;133761;1300;22412;-74
2023/02/20 05:31:55;;;;;;;11.60;3.20;;;;;;;0.38;81.59;100530.80;133774;1300;22502;-74
2023/02/20 05:34:56;;;;;;;11.40;3.40;;;;;;;0.38;81.64;100537.90;133769;1300;22433;-75
2023/02/20 05:37:57;;;;;;;8.40;3.30;;;;;;;0.39;81.52;100542.19;133757;1307;22409;-74
2023/02/20 05:40:57;;;;;;;7.20;3.40;;;;;;;0.40;81.52;100538.87;133758;1301;22476;-75
2023/02/20 05:43:58;;;;;;;10.80;4.00;;;;;;;0.41;81.53;100538.43;133739;1297;22493;-74
2023/02/20 05:46:59;;;;;;;8.00;3.80;;;;;;;0.43;81.57;100532.41;133744;1301;22449;-75
2023/02/20 05:50:00;;;;;;;13.10;3.90;;;;;;;0.46;81.47;100528.96;133745;1300;22877;-75
2023/02/20 05:53:01;;;;;;;7.80;3.50;;;;;;;0.47;81.37;100526.60;133453;1300;22254;-75
2023/02/20 05:56:02;;;;;;;11.40;4.10;;;;;;;0.48;81.47;100522.71;133351;1300;22445;-75
2023/02/20 05:59:03;;;;;;;9.90;4.20;;;;;;;0.50;81.53;100529.71;133757;1300;22468;-76
2023/02/20 06:02:04;;;;;;;9.60;3.90;;;;;;;0.53;81.51;100529.88;133642;1300;23033;-75
2023/02/20 06:05:06;;;;;;;8.40;4.10;;;;;;;0.57;81.40;100526.73;133729;1300;23304;-76
2023/02/20 06:08:07;;;;;;;7.60;3.70;;;;;;;0.60;81.64;100529.30;133628;1300;23271;-75
2023/02/20 06:11:09;;;;;;;7.90;3.80;;;;;;;0.63;81.52;100514.65;133581;1296;22412;-75
2023/02/20 06:14:16;;;;;;;8.20;4.20;;;;;;;0.67;81.50;100517.23;133765;1300;22434;-75
2023/02/20 06:17:16;;;;;;;10.80;4.30;;;;;;;0.70;81.54;100512.52;133717;1300;22414;-75
2023/02/20 06:20:17;;;;;;;11.60;4.10;;;;;;;0.73;81.59;100506.20;133766;1300;23240;-75
2023/02/20 06:23:17;;;;;;;8.80;3.80;;;;;;;0.76;81.55;100506.20;133776;1308;23177;-75
2023/02/20 06:26:19;;;;;;;8.40;3.50;;;;;;;0.80;81.59;100506.84;133554;1300;22462;-74
2023/02/20 06:29:20;;;;;;;9.00;4.20;;;;;;;0.84;81.67;100512.52;133476;1302;22229;-75
2023/02/20 06:32:20;;;;;;;9.50;3.90;;;;;;;0.88;81.69;100518.55;133755;1307;22177;-74
2023/02/20 06:35:21;;;;;;;11.50;4.40;;;;;;;0.93;81.75;100512.65;133733;1300;22397;-71
2023/02/20 06:38:22;;;;;;;13.30;4.60;;;;;;;1.00;81.81;100506.85;133748;1300;22232;-73
2023/02/20 06:41:25;;;;;;;10.60;5.00;;;;;;;1.06;81.83;100507.14;133732;1300;22428;-70
2023/02/20 06:44:26;;;;;;;9.80;5.10;;;;;;;1.11;81.82;100508.02;133752;1300;22433;-70
2023/02/20 06:47:26;;;;;;;12.20;5.10;;;;;;;1.17;81.84;100502.13;133705;1300;23278;-72
2023/02/20 06:50:27;;;;;;;10.10;5.50;;;;;;;1.22;81.88;100498.59;133802;1300;22985;-71
2023/02/20 06:53:30;;;;;;;11.80;5.50;;;;;;;1.29;81.92;100489.45;133756;1300;22478;-70
2023/02/20 06:56:33;;;;;;;13.10;5.10;;;;;;;1.36;81.94;100485.35;133762;1300;22441;-72
2023/02/20 06:59:40;;;;;;;14.30;5.10;;;;;;;1.45;82.08;100481.48;133730;1301;22334;-73
2023/02/20 07:02:40;;;;;;;9.00;5.00;;;;;;;1.55;81.90;100474.38;133770;1300;22409;-73
2023/02/20 07:05:41;;;;;;;9.10;5.20;;;;;;;1.64;81.95;100478.31;133777;1300;22256;-72
2023/02/20 07:08:44;;;;;;;9.50;6.20;;;;;;;1.71;81.91;100480.43;133719;1300;22451;-73
2023/02/20 07:11:45;;;;;;;14.00;6.20;;;;;;;1.78;81.98;100473.21;133664;1300;22287;-72
2023/02/20 07:14:46;;;;;;;;;;;;;;;1.84;81.86;100469.54;133778;1300;22590;-73
2023/02/20 07:17:46;;;;;;;10.10;5.20;;;;;;;1.88;81.96;100465.89;133779;1300;22187;-72
2023/02/20 07:20:47;;;;;;;14.00;6.10;;;;;;;1.93;82.03;100453.34;133756;1300;22412;-72
2023/02/20 07:23:47;;;;;;;14.70;5.90;;;;;;;1.97;81.91;100450.83;133777;1300;22422;-73
2023/02/20 07:26:48;;;;;;;11.80;6.10;;;;;;;2.02;82.08;100440.21;133776;1300;23243;-73
2023/02/20 07:29:49;;;;;;;10.90;5.90;;;;;;;2.07;82.16;100439.15;133749;1300;24309;-72
2023/02/20 07:32:50;;;;;;;12.00;6.30;;;;;;;2.11;81.92;100439.54;133782;1300;22409;-73
2023/02/20 07:35:51;;;;;;;12.10;5.70;;;;;;;2.15;81.94;100434.58;133743;1301;22436;-72
2023/02/20 07:38:57;;;;;;;14.40;6.30;;;;;;;2.18;82.04;100430.51;133670;1300;22367;-72
2023/02/20 07:41:57;;;;;;;14.30;6.30;;;;;;;2.22;81.88;100422.21;133747;1297;22284;-73
2023/02/20 07:45:17;;;;;;;11.20;5.80;;;;;;;2.27;82.12;100412.64;133627;1300;22319;-72
2023/02/20 07:48:17;;;;;;;;;;;;;;;2.34;82.14;100400.45;133738;1306;22505;-72
2023/02/20 07:51:18;;;;;;;12.40;5.80;;;;;;;2.39;82.24;100389.78;133741;1300;23609;-72
2023/02/20 07:54:19;;;;;;;10.90;5.40;;;;;;;2.44;82.08;100380.02;133720;1300;22989;-72
2023/02/20 07:57:19;;;;;;;11.00;6.40;;;;;;;2.49;82.23;100376.89;133639;1300;144580;-72
2023/02/20 08:00:23;;;;;;;10.30;6.20;;;;;;;2.55;82.26;100379.11;133662;1301;22399;-71
2023/02/20 08:03:23;;;;;;;14.50;7.10;;;;;;;2.58;82.33;100373.24;133725;1300;22355;-73
2023/02/20 08:06:24;;;;;;;13.40;7.50;;;;;;;2.64;82.36;100375.61;133737;1301;22484;-71
2023/02/20 08:09:25;;;;;;;12.60;7.20;;;;;;;2.70;82.22;100381.34;133773;1300;22483;-70
2023/02/20 08:12:25;;;;;;;12.60;7.10;;;;;;;2.74;82.49;100379.82;133689;1301;22438;-72
2023/02/20 08:15:26;;;;;;;15.50;8.30;;;;;;;2.76;82.09;100372.20;133704;1301;22239;-72
2023/02/20 08:18:26;;;;;;;12.10;7.10;;;;;;;2.79;82.46;100363.71;133750;1301;23063;-72
2023/02/20 08:21:27;;;;;;;12.60;7.60;;;;;;;2.83;82.43;100351.91;133811;1300;22185;-72
2023/02/20 08:24:28;;;;;;;15.00;8.80;;;;;;;2.89;82.63;100335.56;133754;1294;22295;-74
2023/02/20 08:27:28;;;;;;;20.10;8.80;;;;;;;2.96;82.71;100334.71;133719;1300;22137;-77
2023/02/20 08:30:29;;;;;;;14.70;8.50;;;;;;;3.03;82.89;100335.74;133734;1300;22449;-71
2023/02/20 08:33:30;;;;;;;18.00;10.30;;;;;;;3.11;83.02;100334.30;133712;1307;22526;-73
2023/02/20 08:36:30;;;;;;;18.60;10.60;;;;;;;3.21;82.82;100328.36;133777;1300;22222;-74
2023/02/20 08:39:31;;;;;;;13.10;7.00;;;;;;;3.29;82.91;100320.55;133748;1300;22479;-73
2023/02/20 08:42:32;;;;;;;11.50;7.80;;;;;;;3.37;82.74;100319.81;133765;1300;22455;-76
2023/02/20 08:45:33;;;;;;;13.90;8.60;;;;;;;3.46;82.98;100313.35;133534;1303;22167;-73
2023/02/20 08:48:35;;;;;;;17.20;8.70;;;;;;;3.55;82.88;100300.01;133734;1300;22383;-75
2023/02/20 08:51:35;;;;;;;14.50;8.70;;;;;;;3.71;82.93;100295.20;133746;1300;22473;-76
2023/02/20 08:54:36;;;;;;;12.90;8.10;;;;;;;3.86;83.22;100285.45;133764;1300;22233;-75
2023/02/20 08:57:37;;;;;;;14.40;7.10;;;;;;;4.03;83.00;100281.52;133753;1300;23385;-73
2023/02/20 09:00:37;;;;;;;14.80;7.30;;;;;;;4.17;83.12;100277.43;133782;1300;23104;-74
2023/02/20 09:03:40;;;;;;;13.60;7.60;;;;;;;4.29;82.53;100267.17;133770;1301;22258;-74
2023/02/20 09:06:41;;;;;;;16.80;8.20;;;;;;;4.39;82.65;100265.50;133732;1300;22416;-75
2023/02/20 09:09:41;;;;;;;9.30;7.10;;;;;;;4.46;82.47;100261.92;133752;1301;22472;-73
2023/02/20 09:12:42;;;;;;;11.00;6.70;;;;;;;4.50;82.30;100260.02;133745;1300;22612;-74
2023/02/20 09:15:42;;;;;;;10.10;7.00;;;;;;;4.53;82.30;100256.30;133751;1300;22458;-73
2023/02/20 09:18:44;;;;;;;12.40;7.60;;;;;;;4.56;82.01;100255.50;133757;1300;22371;-74
2023/02/20 09:21:45;;;;;;;14.10;7.90;;;;;;;4.61;82.25;100254.77;133728;1301;22422;-74
2023/02/20 09:24:46;;;;;;;14.50;9.70;;;;;;;4.67;82.15;100248.80;133748;1300;22377;-74
2023/02/20 09:27:47;;;;;;;14.80;9.80;;;;;;;4.77;82.44;100247.00;133738;1300;22520;-74
2023/02/20 09:30:47;;;;;;;13.70;8.60;;;;;;;4.82;82.44;100241.45;133733;1300;22437;-75
2023/02/20 09:33:48;;;;;;;15.50;8.90;;;;;;;4.84;82.07;100242.13;133713;1300;22443;-73
2023/02/20 09:36:48;;;;;;;15.10;9.20;;;;;;;4.88;82.32;100241.67;133620;1304;22184;-79
2023/02/20 09:39:49;;;;;;;15.40;9.80;;;;;;;4.90;82.14;100232.02;133710;1300;23100;-72
2023/02/20 09:42:49;;;;;;;;;;;;;;;4.96;82.08;100225.64;133764;1300;22548;-72
2023/02/20 09:46:01;;;;;;;13.30;8.90;;;;;;;5.08;82.77;100225.85;133718;1301;22388;-72
2023/02/20 09:49:04;;;;;;;13.40;8.80;;;;;;;5.25;82.25;100216.34;133738;1300;22425;-76
2023/02/20 09:52:14;;;;;;;13.80;9.40;;;;;;;5.34;82.10;100194.46;133710;1301;23296;-74
2023/02/20 09:55:20;;;;;;;15.30;10.30;;;;;;;5.38;81.91;100197.08;133709;1308;23131;-72
2023/02/20 09:58:42;;;;;;;13.30;9.20;;;;;;;5.49;81.83;100196.39;133731;1301;23146;-72
2023/02/20 10:01:52;;;;;;;13.40;9.00;;;;;;;5.61;81.90;100191.81;133702;1301;22426;-72
2023/02/20 10:05:01;;;;;;;17.70;9.90;;;;;;;5.70;81.26;100184.88;133725;1301;22179;-76
2023/02/20 10:08:02;;;;;;;18.10;11.10;;;;;;;5.75;81.36;100180.95;133727;1300;23191;-72
2023/02/20 10:11:05;;;;;;;;;;;;;;;5.78;80.85;100164.67;133744;1301;22524;-73
2023/02/20 10:14:28;;;;;;;17.20;10.10;;;;;;;5.84;81.13;100178.88;133724;1305;22400;-72
2023/02/20 10:17:35;;;;;;;14.50;9.20;;;;;;;5.92;81.06;100147.88;133753;1300;22160;-76
2023/02/20 10:20:45;;;;;;;13.30;9.20;;;;;;;5.99;80.76;100115.36;133700;1300;22995;-72
2023/02/20 10:23:59;;;;;;;13.10;8.70;;;;;;;6.02;80.54;100112.10;133703;1300;22609;-72
2023/02/20 10:27:18;;;;;;;13.50;9.00;;;;;;;6.03;80.46;100106.88;133730;1301;22359;-72
2023/02/20 10:30:27;;;;;;;13.40;9.30;;;;;;;6.04;80.18;100110.95;133742;1291;22525;-72
2023/02/20 10:33:31;;;;;;;15.00;8.50;;;;;;;6.06;80.40;100112.76;133678;1300;22472;-72
2023/02/20 10:36:44;;;;;;;17.10;9.70;;;;;;;6.08;80.23;100095.54;133728;1300;23050;-73
2023/02/20 10:40:05;;;;;;;12.80;8.30;;;;;;;6.11;80.27;100060.16;133706;1300;22498;-72
2023/02/20 10:43:18;;;;;;;11.50;7.00;;;;;;;6.17;79.86;100045.88;133752;1301;22411;-72
2023/02/20 10:46:45;;;;;;;15.10;8.00;;;;;;;6.25;79.69;100032.65;133686;1308;23161;-73
2023/02/20 10:49:57;;;;;;;15.00;8.30;;;;;;;6.41;79.63;100024.30;133697;1305;22880;-72
2023/02/20 10:53:42;;;;;;;12.50;7.80;;;;;;;6.71;79.21;100012.27;133701;1302;22528;-73
2023/02/20 10:57:10;;;;;;;12.30;7.60;;;;;;;7.09;78.83;99997.27;133691;1307;22417;-73
2023/02/20 11:00:42;;;;;;;14.90;7.70;;;;;;;7.36;77.58;99977.39;133659;1301;22240;-73
2023/02/20 11:03:54;;;;;;;9.80;7.00;;;;;;;7.56;77.19;99978.57;133614;1304;22174;-73
2023/02/20 11:06:59;;;;;;;13.80;7.90;;;;;;;7.66;76.89;99986.02;133660;1305;22422;-74
2023/02/20 11:10:00;;;;;;;21.90;8.90;;;;;;;7.73;76.32;99988.67;133503;1301;23042;-73
2023/02/20 11:13:01;;;;;;;16.60;9.00;;;;;;;7.73;75.57;99979.23;133725;1300;22408;-73
2023/02/20 11:16:02;;;;;;;12.90;7.60;;;;;;;7.73;75.83;99968.85;133711;1304;22440;-72
2023/02/20 11:19:16;;;;;;;;;;;;;;;7.71;75.17;99953.15;133661;1305;22498;-74
2023/02/20 11:22:36;;;;;;;10.20;6.30;;;;;;;7.69;75.19;99946.34;133692;1301;22396;-74
2023/02/20 11:25:40;;;;;;;16.80;9.10;;;;;;;7.74;75.14;99954.60;133691;1300;22418;-75
2023/02/20 11:28:44;;;;;;;10.70;6.10;;;;;;;7.88;75.61;99951.23;133483;1303;23315;-73
2023/02/20 11:31:46;;;;;;;10.20;6.40;;;;;;;8.06;75.01;99934.45;133626;1301;22634;-74
2023/02/20 11:34:47;;;;;;;9.20;6.50;;;;;;;8.20;74.81;99925.50;133671;1302;22394;-74
2023/02/20 11:38:13;;;;;;;7.70;5.80;;;;;;;8.33;74.53;99926.61;133691;1301;22505;-73
2023/02/20 11:41:26;;;;;;;10.30;8.00;;;;;;;8.42;74.58;99916.23;133580;1303;22492;-74
2023/02/20 11:44:27;;;;;;;9.70;5.70;;;;;;;8.48;73.84;99904.55;133628;1305;22579;-74
2023/02/20 11:47:29;;;;;;;10.30;6.20;;;;;;;8.49;73.14;99894.73;133649;1301;23128;-73
2023/02/20 11:50:44;;;;;;;8.10;6.10;;;;;;;8.54;72.97;99890.88;133654;1305;22484;-73
2023/02/20 11:53:45;;;;;;;13.00;6.40;;;;;;;8.64;73.14;99884.38;133563;1302;22550;-74
2023/02/20 11:57:00;;;;;;;11.30;7.00;;;;;;;8.74;73.13;99884.41;133559;1302;22501;-73
2023/02/20 12:00:22;;;;;;;10.40;6.80;;;;;;;8.82;72.93;99871.00;133698;1303;24469;-73
2023/02/20 12:03:33;;;;;;;9.40;5.30;;;;;;;8.96;72.99;99865.94;133460;1303;22367;-72
2023/02/20 12:06:35;;;;;;;13.70;6.70;;;;;;;9.06;73.03;99859.45;133434;1303;22359;-74
2023/02/20 12:09:38;;;;;;;9.40;5.50;;;;;;;9.18;73.00;99849.04;133455;1305;22235;-75
2023/02/20 12:12:39;;;;;;;7.90;4.70;;;;;;;9.28;72.94;99844.77;133648;1301;22417;-75
2023/02/20 12:15:40;;;;;;;;;;;;;;;9.38;72.78;99841.89;133731;1301;22473;-75
2023/02/20 12:18:52;;;;;;;12.70;5.10;;;;;;;9.51;72.56;99826.80;133638;1301;22252;-78
2023/02/20 12:22:17;;;;;;;6.60;4.70;;;;;;;9.57;72.14;99814.93;133598;1301;23174;-77
2023/02/20 12:25:45;;;;;;;6.60;4.20;;;;;;;9.58;71.58;99796.86;133678;1298;22370;-75
2023/02/20 12:29:00;;;;;;;4.80;3.70;;;;;;;9.55;71.10;99790.64;133663;1305;22395;-75
2023/02/20 12:32:25;;;;;;;7.00;5.20;;;;;;;9.52;70.95;99783.39;133661;1300;22435;-74
2023/02/20 12:35:35;;;;;;;8.60;4.90;;;;;;;9.53;70.30;99763.00;133631;1301;23149;-76
2023/02/20 12:38:49;;;;;;;6.40;4.30;;;;;;;9.55;70.44;99760.44;133540;1301;23113;-75
2023/02/20 12:42:11;;;;;;;7.10;4.20;;;;;;;9.67;70.44;99746.23;133649;1301;22476;-74
2023/02/20 12:45:18;;;;;;;10.20;5.80;;;;;;;9.84;69.10;99732.31;133451;1304;22161;-75
2023/02/20 12:48:39;;;;;;;8.80;5.40;;;;;;;9.99;68.94;99715.52;133712;1300;22430;-74
2023/02/20 12:51:54;;;;;;;10.90;5.70;;;;;;;10.10;68.48;99710.50;133491;1302;22460;-74
2023/02/20 12:55:06;;;;;;;8.10;5.30;;;;;;;10.19;68.42;99700.84;133641;1302;22482;-74
2023/02/20 12:58:31;;;;;;;9.00;6.20;;;;;;;10.24;67.70;99698.33;133648;1300;22487;-74
2023/02/20 13:01:34;;;;;;;8.40;5.80;;;;;;;10.27;68.03;99694.05;133687;1301;22418;-74
2023/02/20 13:05:00;;;;;;;13.90;7.20;;;;;;;10.22;67.46;99685.21;133702;1300;22384;-75
2023/02/20 13:08:08;;;;;;;10.70;5.90;;;;;;;10.09;66.75;99675.41;133654;1300;23242;-74
2023/02/20 13:11:20;;;;;;;18.70;8.40;;;;;;;9.97;66.37;99679.26;133697;1302;22504;-73
2023/02/20 13:14:29;;;;;;;7.60;4.80;;;;;;;9.89;66.04;99668.70;133670;1301;22399;-74
2023/02/20 13:17:42;;;;;;;9.30;5.40;;;;;;;9.85;66.81;99659.98;133697;1300;22425;-73
2023/02/20 13:20:51;;;;;;;14.90;8.10;;;;;;;9.84;66.70;99661.13;133702;1300;22234;-72
2023/02/20 13:24:11;;;;;;;11.30;6.30;;;;;;;9.88;66.45;99661.54;133724;1300;23114;-74
2023/02/20 13:27:29;;;;;;;9.50;6.00;;;;;;;9.93;66.89;99654.37;133745;1300;22477;-74
2023/02/20 13:30:32;;;;;;;10.80;6.10;;;;;;;9.97;66.65;99646.63;133654;1300;22433;-75
2023/02/20 13:33:36;;;;;;;7.10;5.00;;;;;;;9.95;66.56;99641.53;133641;1300;22378;-79
2023/02/20 13:36:42;;;;;;;11.20;5.80;;;;;;;9.90;66.83;99636.77;133430;1302;22415;-74
2023/02/20 13:39:44;;;;;;;8.10;5.30;;;;;;;9.86;66.48;99625.02;133665;1300;22491;-76
2023/02/20 13:42:44;;;;;;;10.10;6.20;;;;;;;9.83;66.01;99619.90;133629;1300;22918;-74
2023/02/20 13:45:46;;;;;;;8.50;5.60;;;;;;;9.84;66.42;99616.91;133666;1300;23348;-78
2023/02/20 13:48:49;;;;;;;6.00;4.60;;;;;;;9.89;66.76;99609.50;133621;1300;22421;-74
2023/02/20 13:51:50;;;;;;;6.20;4.80;;;;;;;9.91;66.21;99607.34;133638;1300;23200;-74
2023/02/20 13:54:51;;;;;;;7.40;5.20;;;;;;;9.87;65.67;99597.33;133570;1300;22429;-73
2023/02/20 13:58:00;;;;;;;11.40;5.90;;;;;;;9.83;65.58;99596.22;133597;1300;22386;-75
2023/02/20 14:01:00;;;;;;;8.20;4.90;;;;;;;9.82;66.03;99593.73;133675;1300;22242;-79
2023/02/20 14:04:04;;;;;;;7.20;4.80;;;;;;;9.84;65.96;99598.73;133650;1300;22393;-75
2023/02/20 14:07:05;;;;;;;6.80;4.30;;;;;;;9.86;66.71;99609.08;133605;1294;22400;-75
2023/02/20 14:10:21;;;;;;;6.90;4.80;;;;;;;9.93;66.69;99607.55;133595;1301;22637;-76
2023/02/20 14:13:23;;;;;;;8.50;4.50;;;;;;;9.97;65.48;99598.75;133587;1300;23166;-77
2023/02/20 14:16:36;;;;;;;17.40;10.70;;;;;;;10.02;65.14;99596.92;133633;1300;22411;-76
2023/02/20 14:19:41;;;;;;;5.50;2.80;;;;;;;10.10;63.37;99592.49;133434;1300;22414;-78
2023/02/20 14:22:42;;;;;;;3.00;2.30;;;;;;;10.26;62.27;99583.06;133631;1300;23150;-75
2023/02/20 14:25:52;;;;;;;2.70;2.10;;;;;;;10.40;61.47;99587.30;133708;1300;22937;-75
2023/02/20 14:28:56;;;;;;;5.70;2.40;;;;;;;10.46;61.57;99582.48;133711;1301;22958;-73
2023/02/20 14:31:59;;;;;;;4.20;2.80;;;;;;;10.49;61.19;99578.36;133671;1300;22527;-81